IGO091 VOMM-VOHS
Flight info
| Callsign | IGO091 |
|---|---|
| Flight time | 0h 48m |
| Altitude | 34000 |
| Route | KAMGU2B KAMGU W20 LEDOB LEDOB6 |
| Aircraft | A21N/M-SDE2E3FGHIRWXY/LB1 |
Departure
| Time | 2026-04-24 07:49 |
|---|---|
| Airport | Chennai International Airport (VOMM) |
Arrival
| Time | 2026-04-24 08:38 |
|---|---|
| Airport | Rajiv Gandhi International Airport (VOHS) |
| Time | Latitude | Longitude | Altitude | Speed | Heading |
|---|---|---|---|---|---|
| 2026-04-24 07:24 | 12.98441 | 80.16528 | 58 ft | 0 kts | 159° |
| 2026-04-24 07:41 | 12.98448 | 80.16525 | 50 ft | 2 kts | 160° |
| 2026-04-24 07:41 | 12.98464 | 80.16520 | 51 ft | 2 kts | 166° |
| 2026-04-24 07:42 | 12.98480 | 80.16518 | 54 ft | 2 kts | 178° |
| 2026-04-24 07:42 | 12.98496 | 80.16521 | 54 ft | 2 kts | 216° |
| 2026-04-24 07:42 | 12.98505 | 80.16532 | 58 ft | 1 kts | 246° |
| 2026-04-24 07:42 | 12.98506 | 80.16536 | 58 ft | 0 kts | 248° |
| 2026-04-24 07:45 | 12.98503 | 80.16527 | 58 ft | 3 kts | 249° |
| 2026-04-24 07:45 | 12.98490 | 80.16494 | 54 ft | 7 kts | 249° |
| 2026-04-24 07:45 | 12.98471 | 80.16439 | 52 ft | 10 kts | 250° |
| 2026-04-24 07:46 | 12.98443 | 80.16364 | 55 ft | 13 kts | 249° |
| 2026-04-24 07:46 | 12.98410 | 80.16270 | 52 ft | 15 kts | 250° |
| 2026-04-24 07:46 | 12.98370 | 80.16160 | 58 ft | 18 kts | 249° |
| 2026-04-24 07:46 | 12.98324 | 80.16036 | 51 ft | 20 kts | 248° |
| 2026-04-24 07:47 | 12.98292 | 80.15901 | 58 ft | 19 kts | 284° |
| 2026-04-24 07:47 | 12.98330 | 80.15769 | 53 ft | 19 kts | 287° |
| 2026-04-24 07:47 | 12.98365 | 80.15637 | 57 ft | 19 kts | 285° |
| 2026-04-24 07:47 | 12.98401 | 80.15503 | 52 ft | 20 kts | 285° |
| 2026-04-24 07:48 | 12.98481 | 80.15480 | 58 ft | 14 kts | 53° |
| 2026-04-24 07:48 | 12.98500 | 80.15522 | 56 ft | 0 kts | 69° |
| 2026-04-24 07:48 | 12.98511 | 80.15551 | 57 ft | 18 kts | 69° |
| 2026-04-24 07:48 | 12.98632 | 80.15875 | 51 ft | 76 kts | 68° |
| 2026-04-24 07:49 | 12.98894 | 80.16570 | 54 ft | 133 kts | 70° |
| 2026-04-24 07:49 | 12.99292 | 80.17617 | 64 ft | 178 kts | 71° |
| 2026-04-24 07:49 | 12.99749 | 80.18786 | 614 ft | 174 kts | 72° |
| 2026-04-24 07:49 | 13.00169 | 80.19985 | 1078 ft | 184 kts | 77° |
| 2026-04-24 07:50 | 13.00845 | 80.21104 | 1655 ft | 190 kts | 39° |
| 2026-04-24 07:50 | 13.02117 | 80.21477 | 1983 ft | 204 kts | 352° |
| 2026-04-24 07:50 | 13.03508 | 80.21001 | 2121 ft | 219 kts | 333° |
| 2026-04-24 07:50 | 13.04923 | 80.20330 | 2432 ft | 231 kts | 334° |
| 2026-04-24 07:51 | 13.06451 | 80.19688 | 2820 ft | 240 kts | 338° |
| 2026-04-24 07:51 | 13.08048 | 80.19102 | 3235 ft | 252 kts | 340° |
| 2026-04-24 07:51 | 13.09795 | 80.18516 | 3487 ft | 275 kts | 342° |
| 2026-04-24 07:51 | 13.11661 | 80.17925 | 4107 ft | 283 kts | 343° |
| 2026-04-24 07:52 | 13.13565 | 80.17337 | 4853 ft | 287 kts | 345° |
| 2026-04-24 07:52 | 13.15479 | 80.16755 | 5447 ft | 287 kts | 345° |
| 2026-04-24 07:52 | 13.17398 | 80.16173 | 5743 ft | 288 kts | 345° |
| 2026-04-24 07:52 | 13.19318 | 80.15592 | 5800 ft | 288 kts | 345° |
| 2026-04-24 07:53 | 13.21262 | 80.15122 | 5811 ft | 286 kts | 356° |
| 2026-04-24 07:53 | 13.23225 | 80.14954 | 5807 ft | 286 kts | 359° |
| 2026-04-24 07:53 | 13.25215 | 80.14840 | 5804 ft | 286 kts | 359° |
| 2026-04-24 07:53 | 13.27205 | 80.14731 | 5804 ft | 286 kts | 359° |
| 2026-04-24 07:54 | 13.29195 | 80.14619 | 5806 ft | 286 kts | 359° |
| 2026-04-24 07:54 | 13.31181 | 80.14416 | 5796 ft | 288 kts | 350° |
| 2026-04-24 07:54 | 13.33108 | 80.13802 | 6154 ft | 293 kts | 340° |
| 2026-04-24 07:54 | 13.34995 | 80.13010 | 6940 ft | 292 kts | 339° |
| 2026-04-24 07:55 | 13.36857 | 80.12200 | 7797 ft | 290 kts | 339° |
| 2026-04-24 07:55 | 13.38725 | 80.11385 | 8586 ft | 292 kts | 339° |
| 2026-04-24 07:55 | 13.40581 | 80.10576 | 9358 ft | 294 kts | 340° |
| 2026-04-24 07:55 | 13.42475 | 80.09753 | 10065 ft | 299 kts | 340° |
| 2026-04-24 07:56 | 13.44454 | 80.08896 | 10394 ft | 318 kts | 340° |
| 2026-04-24 07:56 | 13.46553 | 80.07988 | 10661 ft | 336 kts | 340° |
| 2026-04-24 07:56 | 13.48746 | 80.07037 | 11098 ft | 346 kts | 340° |
| 2026-04-24 07:56 | 13.50983 | 80.06065 | 11714 ft | 349 kts | 340° |
| 2026-04-24 07:57 | 13.53225 | 80.05089 | 12368 ft | 352 kts | 340° |
| 2026-04-24 07:57 | 13.55485 | 80.04106 | 13035 ft | 354 kts | 340° |
| 2026-04-24 07:57 | 13.57768 | 80.03113 | 13699 ft | 356 kts | 340° |
| 2026-04-24 07:57 | 13.60060 | 80.02117 | 14243 ft | 361 kts | 340° |
| 2026-04-24 07:58 | 13.62397 | 80.01102 | 14741 ft | 367 kts | 339° |
| 2026-04-24 07:58 | 13.64761 | 80.00075 | 15264 ft | 372 kts | 339° |
| 2026-04-24 07:58 | 13.67156 | 79.99035 | 15832 ft | 376 kts | 339° |
| 2026-04-24 07:58 | 13.69578 | 79.97982 | 16372 ft | 380 kts | 338° |
| 2026-04-24 07:59 | 13.72037 | 79.96912 | 16847 ft | 387 kts | 339° |
| 2026-04-24 07:59 | 13.74536 | 79.95826 | 17338 ft | 392 kts | 338° |
| 2026-04-24 07:59 | 13.77073 | 79.94722 | 17742 ft | 399 kts | 338° |
| 2026-04-24 07:59 | 13.79611 | 79.93617 | 18180 ft | 403 kts | 337° |
| 2026-04-24 08:00 | 13.82195 | 79.92490 | 18653 ft | 404 kts | 337° |
| 2026-04-24 08:00 | 13.84797 | 79.91357 | 19068 ft | 406 kts | 337° |
| 2026-04-24 08:00 | 13.87409 | 79.90219 | 19480 ft | 407 kts | 337° |
| 2026-04-24 08:00 | 13.90031 | 79.89077 | 19847 ft | 412 kts | 336° |
| 2026-04-24 08:01 | 13.92671 | 79.87926 | 20267 ft | 413 kts | 336° |
| 2026-04-24 08:01 | 13.95335 | 79.86764 | 20600 ft | 418 kts | 336° |
| 2026-04-24 08:01 | 13.98019 | 79.85593 | 21039 ft | 418 kts | 336° |
| 2026-04-24 08:01 | 14.00702 | 79.84424 | 21537 ft | 419 kts | 335° |
| 2026-04-24 08:02 | 14.03365 | 79.83262 | 22011 ft | 420 kts | 335° |
| 2026-04-24 08:02 | 14.06066 | 79.82084 | 22460 ft | 423 kts | 335° |
| 2026-04-24 08:02 | 14.08787 | 79.80896 | 22871 ft | 426 kts | 335° |
| 2026-04-24 08:02 | 14.11523 | 79.79702 | 23322 ft | 428 kts | 335° |
| 2026-04-24 08:03 | 14.14280 | 79.78497 | 23651 ft | 432 kts | 335° |
| 2026-04-24 08:03 | 14.17059 | 79.77283 | 23982 ft | 435 kts | 335° |
| 2026-04-24 08:03 | 14.19861 | 79.76059 | 24327 ft | 438 kts | 335° |
| 2026-04-24 08:03 | 14.22674 | 79.74829 | 24656 ft | 441 kts | 334° |
| 2026-04-24 08:04 | 14.25481 | 79.73602 | 24977 ft | 443 kts | 334° |
| 2026-04-24 08:04 | 14.28329 | 79.72357 | 25304 ft | 446 kts | 334° |
| 2026-04-24 08:04 | 14.31194 | 79.71104 | 25598 ft | 449 kts | 334° |
| 2026-04-24 08:04 | 14.34082 | 79.69841 | 25900 ft | 451 kts | 334° |
| 2026-04-24 08:05 | 14.36993 | 79.68567 | 26216 ft | 453 kts | 334° |
| 2026-04-24 08:05 | 14.39904 | 79.67292 | 26516 ft | 456 kts | 333° |
| 2026-04-24 08:05 | 14.42831 | 79.66011 | 26799 ft | 458 kts | 333° |
| 2026-04-24 08:05 | 14.45777 | 79.64720 | 27070 ft | 461 kts | 333° |
| 2026-04-24 08:06 | 14.48742 | 79.63421 | 27339 ft | 463 kts | 333° |
| 2026-04-24 08:06 | 14.51679 | 79.62134 | 27604 ft | 465 kts | 333° |
| 2026-04-24 08:06 | 14.54674 | 79.60821 | 27856 ft | 468 kts | 333° |
| 2026-04-24 08:06 | 14.57671 | 79.59507 | 28114 ft | 470 kts | 333° |
| 2026-04-24 08:07 | 14.60688 | 79.58184 | 28379 ft | 472 kts | 333° |
| 2026-04-24 08:07 | 14.63716 | 79.56856 | 28614 ft | 474 kts | 333° |
| 2026-04-24 08:07 | 14.66764 | 79.55518 | 28851 ft | 476 kts | 333° |
| 2026-04-24 08:07 | 14.69817 | 79.54178 | 29084 ft | 478 kts | 333° |
| 2026-04-24 08:08 | 14.72881 | 79.52833 | 29377 ft | 479 kts | 332° |
| 2026-04-24 08:08 | 14.75947 | 79.51487 | 29731 ft | 478 kts | 332° |
| 2026-04-24 08:08 | 14.79011 | 79.50141 | 30028 ft | 478 kts | 332° |
| 2026-04-24 08:09 | 14.85101 | 79.47463 | 30549 ft | 478 kts | 332° |
| 2026-04-24 08:09 | 14.88158 | 79.46119 | 30826 ft | 478 kts | 332° |
| 2026-04-24 08:09 | 14.91225 | 79.44769 | 31092 ft | 477 kts | 332° |
| 2026-04-24 08:09 | 14.94292 | 79.43420 | 31350 ft | 478 kts | 331° |
| 2026-04-24 08:10 | 14.97351 | 79.42073 | 31616 ft | 478 kts | 331° |
| 2026-04-24 08:10 | 15.00408 | 79.40716 | 31867 ft | 478 kts | 330° |
| 2026-04-24 08:10 | 15.03460 | 79.39352 | 32100 ft | 478 kts | 330° |
| 2026-04-24 08:10 | 15.06472 | 79.38001 | 32355 ft | 477 kts | 330° |
| 2026-04-24 08:11 | 15.09514 | 79.36634 | 32617 ft | 477 kts | 330° |
| 2026-04-24 08:11 | 15.12564 | 79.35265 | 32859 ft | 477 kts | 330° |
| 2026-04-24 08:11 | 15.15616 | 79.33894 | 33094 ft | 477 kts | 330° |
| 2026-04-24 08:11 | 15.18665 | 79.32526 | 33330 ft | 477 kts | 330° |
| 2026-04-24 08:12 | 15.21717 | 79.31156 | 33567 ft | 477 kts | 330° |
| 2026-04-24 08:12 | 15.24769 | 79.29787 | 33773 ft | 478 kts | 330° |
| 2026-04-24 08:12 | 15.27824 | 79.28415 | 33811 ft | 478 kts | 330° |
| 2026-04-24 08:13 | 15.33884 | 79.25695 | 33816 ft | 477 kts | 330° |
| 2026-04-24 08:13 | 15.39979 | 79.22957 | 33822 ft | 477 kts | 330° |
| 2026-04-24 08:14 | 15.46051 | 79.20229 | 33822 ft | 475 kts | 329° |
| 2026-04-24 08:14 | 15.52125 | 79.17513 | 33824 ft | 475 kts | 330° |
| 2026-04-24 08:15 | 15.58197 | 79.14803 | 33826 ft | 475 kts | 330° |
| 2026-04-24 08:15 | 15.64240 | 79.12104 | 33834 ft | 475 kts | 330° |
| 2026-04-24 08:16 | 15.70310 | 79.09392 | 33839 ft | 475 kts | 330° |
| 2026-04-24 08:16 | 15.76371 | 79.06682 | 33835 ft | 472 kts | 330° |
| 2026-04-24 08:17 | 15.82394 | 79.03987 | 33846 ft | 471 kts | 330° |
| 2026-04-24 08:17 | 15.88416 | 79.01289 | 33842 ft | 471 kts | 330° |
| 2026-04-24 08:18 | 15.94404 | 78.98606 | 33673 ft | 469 kts | 330° |
| 2026-04-24 08:18 | 15.97397 | 78.97266 | 33418 ft | 468 kts | 330° |
| 2026-04-24 08:18 | 16.00385 | 78.95926 | 33164 ft | 468 kts | 330° |
| 2026-04-24 08:18 | 16.03373 | 78.94586 | 32702 ft | 465 kts | 330° |
| 2026-04-24 08:19 | 16.06327 | 78.93262 | 32172 ft | 461 kts | 330° |
| 2026-04-24 08:19 | 16.09270 | 78.91943 | 31600 ft | 458 kts | 330° |
| 2026-04-24 08:19 | 16.11206 | 78.91074 | 31218 ft | 457 kts | 330° |
| 2026-04-24 08:19 | 16.15068 | 78.89338 | 30456 ft | 454 kts | 330° |
| 2026-04-24 08:20 | 16.17967 | 78.88035 | 29888 ft | 452 kts | 330° |
| 2026-04-24 08:20 | 16.19920 | 78.87157 | 29428 ft | 451 kts | 330° |
| 2026-04-24 08:20 | 16.23724 | 78.85446 | 28643 ft | 447 kts | 331° |
| 2026-04-24 08:20 | 16.25614 | 78.84596 | 28257 ft | 445 kts | 331° |
| 2026-04-24 08:21 | 16.28452 | 78.83319 | 27694 ft | 442 kts | 331° |
| 2026-04-24 08:21 | 16.31262 | 78.82055 | 27116 ft | 439 kts | 332° |
| 2026-04-24 08:21 | 16.34062 | 78.80794 | 26537 ft | 437 kts | 332° |
| 2026-04-24 08:21 | 16.36843 | 78.79541 | 25963 ft | 435 kts | 332° |
| 2026-04-24 08:22 | 16.39614 | 78.78292 | 25382 ft | 433 kts | 333° |
| 2026-04-24 08:22 | 16.42370 | 78.77050 | 24853 ft | 430 kts | 333° |
| 2026-04-24 08:22 | 16.45098 | 78.75821 | 24260 ft | 424 kts | 333° |
| 2026-04-24 08:22 | 16.47773 | 78.74617 | 23672 ft | 412 kts | 334° |
| 2026-04-24 08:23 | 16.50369 | 78.73448 | 23070 ft | 401 kts | 334° |
| 2026-04-24 08:23 | 16.52883 | 78.72315 | 22493 ft | 388 kts | 334° |
| 2026-04-24 08:23 | 16.55335 | 78.71209 | 21859 ft | 379 kts | 334° |
| 2026-04-24 08:23 | 16.57710 | 78.70136 | 21446 ft | 373 kts | 334° |
| 2026-04-24 08:24 | 16.60090 | 78.69061 | 20951 ft | 372 kts | 334° |
| 2026-04-24 08:24 | 16.62461 | 78.67987 | 20433 ft | 372 kts | 334° |
| 2026-04-24 08:24 | 16.64841 | 78.66908 | 19823 ft | 374 kts | 335° |
| 2026-04-24 08:24 | 16.67222 | 78.65828 | 19295 ft | 373 kts | 335° |
| 2026-04-24 08:25 | 16.69601 | 78.64750 | 18779 ft | 372 kts | 335° |
| 2026-04-24 08:25 | 16.71976 | 78.63675 | 18245 ft | 371 kts | 335° |
| 2026-04-24 08:25 | 16.74343 | 78.62602 | 17674 ft | 370 kts | 335° |
| 2026-04-24 08:25 | 16.76710 | 78.61529 | 17145 ft | 368 kts | 335° |
| 2026-04-24 08:26 | 16.79050 | 78.60468 | 16635 ft | 365 kts | 336° |
| 2026-04-24 08:26 | 16.81367 | 78.59416 | 16108 ft | 362 kts | 336° |
| 2026-04-24 08:26 | 16.83644 | 78.58382 | 15596 ft | 359 kts | 337° |
| 2026-04-24 08:26 | 16.85929 | 78.57345 | 15079 ft | 357 kts | 337° |
| 2026-04-24 08:27 | 16.88199 | 78.56314 | 14583 ft | 354 kts | 337° |
| 2026-04-24 08:27 | 16.90449 | 78.55292 | 14090 ft | 351 kts | 338° |
| 2026-04-24 08:27 | 16.92689 | 78.54275 | 13575 ft | 349 kts | 338° |
| 2026-04-24 08:27 | 16.94906 | 78.53268 | 13047 ft | 346 kts | 338° |
| 2026-04-24 08:28 | 16.97107 | 78.52268 | 12549 ft | 342 kts | 338° |
| 2026-04-24 08:28 | 16.99282 | 78.51280 | 12060 ft | 339 kts | 338° |
| 2026-04-24 08:28 | 17.01433 | 78.50302 | 11563 ft | 336 kts | 338° |
| 2026-04-24 08:28 | 17.03543 | 78.49342 | 11073 ft | 333 kts | 338° |
| 2026-04-24 08:29 | 17.05664 | 78.48375 | 10594 ft | 331 kts | 338° |
| 2026-04-24 08:29 | 17.07765 | 78.47419 | 10120 ft | 328 kts | 338° |
| 2026-04-24 08:29 | 17.09827 | 78.46479 | 9919 ft | 315 kts | 337° |
| 2026-04-24 08:29 | 17.11766 | 78.45535 | 9791 ft | 301 kts | 331° |
| 2026-04-24 08:30 | 17.13365 | 78.44129 | 9223 ft | 304 kts | 306° |
| 2026-04-24 08:30 | 17.14210 | 78.42129 | 8748 ft | 303 kts | 279° |
| 2026-04-24 08:30 | 17.14343 | 78.39942 | 8306 ft | 301 kts | 269° |
| 2026-04-24 08:30 | 17.14293 | 78.37760 | 7867 ft | 299 kts | 268° |
| 2026-04-24 08:31 | 17.14222 | 78.35597 | 7444 ft | 296 kts | 268° |
| 2026-04-24 08:31 | 17.14159 | 78.33479 | 7082 ft | 292 kts | 268° |
| 2026-04-24 08:31 | 17.14103 | 78.31365 | 6725 ft | 292 kts | 269° |
| 2026-04-24 08:31 | 17.14052 | 78.29239 | 6243 ft | 293 kts | 269° |
| 2026-04-24 08:32 | 17.14004 | 78.27120 | 5820 ft | 290 kts | 269° |
| 2026-04-24 08:32 | 17.13959 | 78.25019 | 5462 ft | 288 kts | 269° |
| 2026-04-24 08:32 | 17.13945 | 78.22929 | 5204 ft | 285 kts | 273° |
| 2026-04-24 08:32 | 17.14422 | 78.20923 | 5349 ft | 288 kts | 300° |
| 2026-04-24 08:33 | 17.15688 | 78.19330 | 5501 ft | 283 kts | 325° |
| 2026-04-24 08:33 | 17.17440 | 78.18494 | 5520 ft | 272 kts | 351° |
| 2026-04-24 08:33 | 17.19256 | 78.18443 | 5524 ft | 254 kts | 7° |
| 2026-04-24 08:33 | 17.20878 | 78.18898 | 5557 ft | 232 kts | 35° |
| 2026-04-24 08:34 | 17.21891 | 78.20139 | 5546 ft | 227 kts | 63° |
| 2026-04-24 08:34 | 17.22372 | 78.21713 | 5458 ft | 229 kts | 82° |
| 2026-04-24 08:34 | 17.22454 | 78.23374 | 5224 ft | 229 kts | 90° |
| 2026-04-24 08:34 | 17.22459 | 78.25039 | 4918 ft | 228 kts | 89° |
| 2026-04-24 08:35 | 17.22501 | 78.26677 | 4617 ft | 227 kts | 88° |
| 2026-04-24 08:35 | 17.22544 | 78.28332 | 4329 ft | 227 kts | 88° |
| 2026-04-24 08:35 | 17.22579 | 78.29978 | 4046 ft | 226 kts | 89° |
| 2026-04-24 08:35 | 17.22613 | 78.31622 | 3765 ft | 224 kts | 88° |
| 2026-04-24 08:36 | 17.22649 | 78.33224 | 3497 ft | 222 kts | 88° |
| 2026-04-24 08:36 | 17.22684 | 78.34849 | 3220 ft | 223 kts | 88° |
| 2026-04-24 08:36 | 17.22718 | 78.36428 | 2951 ft | 208 kts | 88° |
| 2026-04-24 08:36 | 17.22749 | 78.37868 | 2686 ft | 189 kts | 87° |
| 2026-04-24 08:37 | 17.22778 | 78.39173 | 2444 ft | 169 kts | 86° |
| 2026-04-24 08:37 | 17.22809 | 78.40339 | 2190 ft | 154 kts | 85° |
| 2026-04-24 08:37 | 17.22860 | 78.41420 | 1999 ft | 147 kts | 86° |
| 2026-04-24 08:37 | 17.22870 | 78.42372 | 1982 ft | 107 kts | 89° |
| 2026-04-24 08:38 | 17.22879 | 78.42960 | 1983 ft | 52 kts | 88° |
| 2026-04-24 08:38 | 17.22947 | 78.43199 | 1988 ft | 32 kts | 61° |
| 2026-04-24 08:38 | 17.22999 | 78.43287 | 1984 ft | 3 kts | 58° |
| 2026-04-24 08:38 | 17.23013 | 78.43310 | 1984 ft | 5 kts | 58° |
| 2026-04-24 08:39 | 17.23048 | 78.43334 | 1982 ft | 7 kts | 360° |
| 2026-04-24 08:39 | 17.23085 | 78.43302 | 1984 ft | 8 kts | 288° |
| 2026-04-24 08:39 | 17.23088 | 78.43230 | 1982 ft | 13 kts | 271° |
| 2026-04-24 08:39 | 17.23145 | 78.43163 | 1983 ft | 15 kts | 354° |
| 2026-04-24 08:40 | 17.23268 | 78.43161 | 1983 ft | 20 kts | 359° |
| 2026-04-24 08:40 | 17.23361 | 78.43185 | 1984 ft | 2 kts | 56° |
| 2026-04-24 08:40 | 17.23370 | 78.43217 | 1984 ft | 6 kts | 94° |
| 2026-04-24 08:40 | 17.23363 | 78.43271 | 1985 ft | 9 kts | 89° |
| 2026-04-24 08:41 | 17.23365 | 78.43347 | 1985 ft | 6 kts | 86° |
| 2026-04-24 08:41 | 17.23379 | 78.43362 | 1984 ft | 4 kts | 32° |
| 2026-04-24 08:41 | 17.23411 | 78.43368 | 1984 ft | 1 kts | 358° |
| 2026-04-24 08:41 | 17.23413 | 78.43368 | 1984 ft | 0 kts | 0° |